createdAt,value
2017-07-26T00:00:32.883Z,99537.89
2017-07-26T00:03:00.435Z,99538.80
2017-07-26T00:05:27.879Z,99541.17
2017-07-26T00:07:55.339Z,99535.95
2017-07-26T00:10:22.809Z,99528.13
2017-07-26T00:12:50.291Z,99516.88
2017-07-26T00:15:17.736Z,99535.17
2017-07-26T00:17:45.232Z,99535.11
2017-07-26T00:20:12.741Z,99536.74
2017-07-26T00:22:40.199Z,99543.50
2017-07-26T00:25:07.640Z,99550.59
2017-07-26T00:27:35.104Z,99554.19
2017-07-26T00:30:02.547Z,99562.61
2017-07-26T00:32:30.003Z,99562.13
2017-07-26T00:34:57.472Z,99561.20
2017-07-26T00:37:24.905Z,99569.69
2017-07-26T00:39:52.391Z,99572.22
2017-07-26T00:42:19.948Z,99576.05
2017-07-26T00:44:47.413Z,99572.34
2017-07-26T00:47:14.955Z,99577.81
2017-07-26T00:49:42.414Z,99583.13
2017-07-26T00:52:09.842Z,99589.14
2017-07-26T00:54:37.327Z,99575.63
2017-07-26T00:57:04.788Z,99576.14
2017-07-26T00:59:32.339Z,99574.86
2017-07-26T01:01:59.769Z,99581.85
2017-07-26T01:04:27.362Z,99580.92
2017-07-26T01:06:55.392Z,99581.84
2017-07-26T01:09:22.890Z,99583.55
2017-07-26T01:11:50.361Z,99584.52
2017-07-26T01:14:17.906Z,99592.16
2017-07-26T01:16:45.362Z,99594.94
2017-07-26T01:19:13.445Z,99589.67
2017-07-26T01:21:40.916Z,99597.95
2017-07-26T01:24:08.429Z,99599.30
2017-07-26T01:26:35.899Z,99601.54
2017-07-26T01:29:03.329Z,99599.30
2017-07-26T01:31:30.805Z,99603.74
2017-07-26T01:33:58.233Z,99604.02
2017-07-26T01:36:25.683Z,99610.63
2017-07-26T01:38:53.198Z,99611.91
2017-07-26T01:41:20.686Z,99618.99
2017-07-26T01:43:48.145Z,99609.61
2017-07-26T01:46:15.601Z,99619.22
2017-07-26T01:48:43.167Z,99616.48
2017-07-26T01:51:10.602Z,99616.20
2017-07-26T01:53:38.122Z,99621.36
2017-07-26T01:56:05.558Z,99616.86
2017-07-26T01:58:33.021Z,99620.14
2017-07-26T02:01:00.463Z,99619.05
2017-07-26T02:03:27.917Z,99622.72
2017-07-26T02:05:55.407Z,99616.68
2017-07-26T02:08:22.914Z,99615.13
2017-07-26T02:10:50.426Z,99618.50
2017-07-26T02:13:17.867Z,99619.32
2017-07-26T02:15:45.352Z,99629.05
2017-07-26T02:18:12.890Z,99628.41
2017-07-26T02:20:40.453Z,99622.17
2017-07-26T02:23:07.902Z,99623.83
2017-07-26T02:25:35.375Z,99621.38
2017-07-26T02:28:02.824Z,99619.05
2017-07-26T02:30:30.339Z,99621.27
2017-07-26T02:32:57.895Z,99616.48
2017-07-26T02:35:25.380Z,99619.98
2017-07-26T02:37:52.862Z,99616.91
2017-07-26T02:40:20.330Z,99624.31
2017-07-26T02:42:47.771Z,99624.10
2017-07-26T02:45:15.253Z,99624.25
2017-07-26T02:47:42.938Z,99631.71
2017-07-26T02:50:10.407Z,99632.20
2017-07-26T02:52:37.863Z,99637.38
2017-07-26T02:55:05.361Z,99633.23
2017-07-26T02:57:32.797Z,99641.62
2017-07-26T03:00:00.514Z,99639.09
2017-07-26T03:02:27.953Z,99635.02
2017-07-26T03:04:55.419Z,99639.84
2017-07-26T03:07:22.948Z,99633.41
2017-07-26T03:09:50.497Z,99634.19
2017-07-26T03:12:18.318Z,99633.89
2017-07-26T03:14:45.827Z,99626.69
2017-07-26T03:17:13.392Z,99625.07
2017-07-26T03:19:40.841Z,99623.89
2017-07-26T03:22:08.330Z,99625.17
2017-07-26T03:24:36.061Z,99632.75
2017-07-26T03:27:03.605Z,99626.25
2017-07-26T03:29:31.086Z,99636.34
2017-07-26T03:31:58.569Z,99641.41
2017-07-26T03:34:26.027Z,99638.88
2017-07-26T03:36:53.855Z,99641.56
2017-07-26T03:39:21.420Z,99638.88
2017-07-26T03:41:48.977Z,99634.84
2017-07-26T03:44:16.426Z,99642.58
2017-07-26T03:46:43.869Z,99643.18
2017-07-26T03:49:11.650Z,99643.11
2017-07-26T03:51:39.143Z,99642.84
2017-07-26T03:54:06.626Z,99642.59
2017-07-26T03:56:34.071Z,99642.91
2017-07-26T03:59:01.575Z,99641.23
2017-07-26T04:01:29.071Z,99637.00
2017-07-26T04:03:56.548Z,99644.83
2017-07-26T04:06:24.044Z,99643.59
2017-07-26T04:08:51.510Z,99640.48
2017-07-26T04:11:18.951Z,99647.26
2017-07-26T04:13:46.440Z,99642.68
2017-07-26T04:16:14.259Z,99650.37
2017-07-26T04:18:41.738Z,99646.66
2017-07-26T04:21:09.304Z,99647.96
2017-07-26T04:23:36.860Z,99645.16
2017-07-26T04:26:04.310Z,99649.67
2017-07-26T04:28:31.996Z,99643.34
2017-07-26T04:30:59.543Z,99652.20
2017-07-26T04:33:27.099Z,99653.98
2017-07-26T04:35:54.575Z,99653.80
2017-07-26T04:38:22.113Z,99655.42
2017-07-26T04:40:49.885Z,99658.80
2017-07-26T04:43:17.435Z,99663.27
2017-07-26T04:45:44.897Z,99659.13
2017-07-26T04:48:12.350Z,99662.73
2017-07-26T04:50:39.821Z,99656.81
2017-07-26T04:53:07.421Z,99662.03
2017-07-26T04:55:34.876Z,99665.25
2017-07-26T04:58:02.328Z,99666.92
2017-07-26T05:00:29.789Z,99668.09
2017-07-26T05:02:57.241Z,99662.25
2017-07-26T05:05:24.752Z,99666.75
2017-07-26T05:07:52.205Z,99668.53
2017-07-26T05:10:19.779Z,99662.36
2017-07-26T05:12:47.246Z,99664.55
2017-07-26T05:15:14.692Z,99662.52
2017-07-26T05:17:42.150Z,99663.81
2017-07-26T05:20:09.688Z,99672.72
2017-07-26T05:22:37.235Z,99669.61
2017-07-26T05:25:04.691Z,99670.34
2017-07-26T05:27:32.266Z,99671.06
2017-07-26T05:29:59.717Z,99670.52
2017-07-26T05:32:27.183Z,99668.86
2017-07-26T05:34:54.626Z,99672.25
2017-07-26T05:37:22.091Z,99670.73
2017-07-26T05:39:49.523Z,99662.02
2017-07-26T05:42:17.004Z,99664.71
2017-07-26T05:44:44.784Z,99663.95
2017-07-26T05:47:12.275Z,99669.38
2017-07-26T05:49:39.727Z,99676.31
2017-07-26T05:52:07.244Z,99672.59
2017-07-26T05:54:34.678Z,99681.09
2017-07-26T05:57:02.133Z,99683.30
2017-07-26T05:59:29.698Z,99687.64
2017-07-26T06:01:57.124Z,99696.64
2017-07-26T06:04:24.595Z,99685.61
2017-07-26T06:06:52.030Z,99689.91
2017-07-26T06:09:20.019Z,99694.16
2017-07-26T06:11:47.465Z,99697.20
2017-07-26T06:14:15.852Z,99696.34
2017-07-26T06:16:43.291Z,99697.27
2017-07-26T06:19:10.780Z,99699.95
2017-07-26T06:21:38.808Z,99702.34
2017-07-26T06:24:06.321Z,99711.84
2017-07-26T06:26:33.775Z,99712.06
2017-07-26T06:29:01.279Z,99715.01
2017-07-26T06:31:28.708Z,99718.47
2017-07-26T06:33:56.231Z,99723.17
2017-07-26T06:36:23.670Z,99722.00
2017-07-26T06:38:51.160Z,99739.08
2017-07-26T06:41:18.718Z,99736.70
2017-07-26T06:43:46.146Z,99731.52
2017-07-26T06:46:13.695Z,99738.83
2017-07-26T06:48:41.191Z,99745.70
2017-07-26T06:51:08.973Z,99742.80
2017-07-26T06:53:36.516Z,99739.63
2017-07-26T06:56:03.983Z,99742.85
2017-07-26T06:58:31.902Z,99741.78
2017-07-26T07:00:59.361Z,99749.17
2017-07-26T07:03:26.841Z,99745.27
2017-07-26T07:05:54.414Z,99744.79
2017-07-26T07:08:21.847Z,99742.00
2017-07-26T07:10:49.526Z,99746.89
2017-07-26T07:13:16.952Z,99747.11
2017-07-26T07:15:44.424Z,99752.05
2017-07-26T07:18:11.859Z,99753.39
2017-07-26T07:20:39.332Z,99750.77
2017-07-26T07:23:07.039Z,99765.37
2017-07-26T07:25:34.571Z,99755.41
2017-07-26T07:28:02.034Z,99761.73
2017-07-26T07:30:29.587Z,99758.10
2017-07-26T07:32:57.038Z,99762.22
2017-07-26T07:35:24.511Z,99755.56
2017-07-26T07:37:51.949Z,99759.70
2017-07-26T07:40:19.391Z,99762.88
2017-07-26T07:42:46.872Z,99762.36
2017-07-26T07:45:14.304Z,99762.84
2017-07-26T07:47:41.767Z,99760.05
2017-07-26T07:50:09.239Z,99765.13
2017-07-26T07:52:36.707Z,99759.94
2017-07-26T07:55:04.275Z,99757.67
2017-07-26T07:57:31.811Z,99760.92
2017-07-26T07:59:59.523Z,99759.45
2017-07-26T08:02:27.051Z,99764.58
2017-07-26T08:04:54.493Z,99765.02
2017-07-26T08:07:21.953Z,99766.48
2017-07-26T08:09:49.485Z,99770.09
2017-07-26T08:12:17.082Z,99773.88
2017-07-26T08:14:44.524Z,99777.45
2017-07-26T08:17:12.065Z,99770.41
2017-07-26T08:19:39.522Z,99773.70
2017-07-26T08:22:06.971Z,99776.84
2017-07-26T08:24:34.908Z,99768.80
2017-07-26T08:27:02.364Z,99764.97
2017-07-26T08:29:30.058Z,99765.77
2017-07-26T08:31:57.536Z,99751.80
2017-07-26T08:34:25.225Z,99753.38
2017-07-26T08:36:54.042Z,99754.73
2017-07-26T08:39:21.499Z,99759.70
2017-07-26T08:41:48.939Z,99750.69
2017-07-26T08:44:16.393Z,99758.13
2017-07-26T08:46:43.839Z,99760.66
2017-07-26T08:49:11.294Z,99766.56
2017-07-26T08:51:38.765Z,99761.89
2017-07-26T08:54:06.283Z,99756.26
2017-07-26T08:56:33.735Z,99752.55
2017-07-26T08:59:01.216Z,99752.80
2017-07-26T09:01:29.313Z,99759.48
2017-07-26T09:03:56.770Z,99757.30
2017-07-26T09:06:24.239Z,99762.73
2017-07-26T09:08:51.699Z,99766.97
2017-07-26T09:11:19.167Z,99763.16
2017-07-26T09:13:46.638Z,99771.72
2017-07-26T09:16:14.132Z,99780.56
2017-07-26T09:18:41.571Z,99790.14
2017-07-26T09:21:09.124Z,99795.30
2017-07-26T09:23:36.685Z,99785.96
2017-07-26T09:26:04.543Z,99784.67
2017-07-26T09:28:32.059Z,99796.51
2017-07-26T09:30:59.559Z,99785.78
2017-07-26T09:33:27.015Z,99788.09
2017-07-26T09:35:54.477Z,99788.97
2017-07-26T09:38:21.918Z,99799.45
2017-07-26T09:40:49.390Z,99799.92
2017-07-26T09:43:16.964Z,99801.18
2017-07-26T09:45:44.436Z,99809.80
2017-07-26T09:48:11.963Z,99802.69
2017-07-26T09:50:39.431Z,99808.09
2017-07-26T09:53:06.875Z,99809.77
2017-07-26T09:55:34.315Z,99806.32
2017-07-26T09:58:01.792Z,99812.44
2017-07-26T10:00:29.231Z,99808.70
2017-07-26T10:02:56.821Z,99807.72
2017-07-26T10:05:24.277Z,99803.84
2017-07-26T10:07:51.821Z,99802.14
2017-07-26T10:10:19.249Z,99810.40
2017-07-26T10:12:46.710Z,99809.09
2017-07-26T10:15:14.270Z,99800.25
2017-07-26T10:17:41.828Z,99807.52
2017-07-26T10:20:09.256Z,99806.08
2017-07-26T10:22:36.719Z,99799.85
2017-07-26T10:25:04.163Z,99805.39
2017-07-26T10:27:32.199Z,99799.61
2017-07-26T10:29:59.702Z,99792.19
2017-07-26T10:32:27.158Z,99797.81
2017-07-26T10:34:54.654Z,99795.84
2017-07-26T10:37:22.109Z,99797.03
2017-07-26T10:39:49.770Z,99791.05
2017-07-26T10:42:17.346Z,99783.12
2017-07-26T10:44:44.777Z,99788.15
2017-07-26T10:47:12.221Z,99789.95
2017-07-26T10:49:39.685Z,99799.48
2017-07-26T10:52:07.128Z,99797.38
2017-07-26T10:54:34.597Z,99799.59
2017-07-26T10:57:02.067Z,99799.34
2017-07-26T10:59:29.628Z,99801.34
2017-07-26T11:01:57.061Z,99797.16
2017-07-26T11:04:24.758Z,99810.37
2017-07-26T11:06:52.215Z,99815.27
2017-07-26T11:09:20.569Z,99813.84
2017-07-26T11:11:48.030Z,99821.33
2017-07-26T11:14:15.490Z,99831.80
2017-07-26T11:16:43.005Z,99825.54
2017-07-26T11:19:10.474Z,99823.98
2017-07-26T11:21:37.905Z,99823.67
2017-07-26T11:24:05.362Z,99825.47
2017-07-26T11:26:32.896Z,99824.32
2017-07-26T11:29:00.434Z,99822.60
2017-07-26T11:31:27.904Z,99823.61
2017-07-26T11:33:55.347Z,99828.22
2017-07-26T11:36:22.851Z,99816.27
2017-07-26T11:38:50.316Z,99812.80
2017-07-26T11:41:17.774Z,99827.64
2017-07-26T11:43:45.265Z,99828.14
2017-07-26T11:46:12.826Z,99829.64
2017-07-26T11:48:40.263Z,99832.82
2017-07-26T11:51:07.717Z,99829.52
2017-07-26T11:53:35.197Z,99831.09
2017-07-26T11:56:02.660Z,99828.17
2017-07-26T11:58:30.132Z,99825.86
2017-07-26T12:00:57.687Z,99833.70
2017-07-26T12:03:25.118Z,99831.95
2017-07-26T12:05:52.598Z,99838.73
2017-07-26T12:08:20.073Z,99848.98
2017-07-26T12:10:47.604Z,99846.59
2017-07-26T12:13:15.072Z,99846.80
2017-07-26T12:15:42.675Z,99853.47
2017-07-26T12:18:10.181Z,99864.13
2017-07-26T12:20:37.647Z,99864.62
2017-07-26T12:23:05.198Z,99864.53
2017-07-26T12:25:32.635Z,99869.22
2017-07-26T12:28:00.097Z,99872.66
2017-07-26T12:30:27.565Z,99872.37
2017-07-26T12:32:55.119Z,99874.24
2017-07-26T12:35:22.580Z,99867.99
2017-07-26T12:37:50.090Z,99869.52
2017-07-26T12:40:17.590Z,99869.42
2017-07-26T12:42:45.052Z,99873.70
2017-07-26T12:45:12.504Z,99872.88
2017-07-26T12:47:39.964Z,99869.23
2017-07-26T12:50:07.532Z,99865.11
2017-07-26T12:52:35.136Z,99869.52
2017-07-26T12:55:02.640Z,99877.33
2017-07-26T12:57:30.093Z,99863.96
2017-07-26T12:59:57.546Z,99872.59
2017-07-26T13:02:24.969Z,99868.55
2017-07-26T13:04:52.463Z,99866.52
2017-07-26T13:07:19.923Z,99861.55
2017-07-26T13:09:47.482Z,99859.05
2017-07-26T13:12:14.927Z,99864.91
2017-07-26T13:14:42.496Z,99858.94
2017-07-26T13:17:09.953Z,99863.52
2017-07-26T13:19:37.512Z,99858.69
2017-07-26T13:22:04.953Z,99862.23
2017-07-26T13:24:32.509Z,99856.11
2017-07-26T13:26:59.942Z,99864.36
2017-07-26T13:29:27.494Z,99860.62
2017-07-26T13:31:54.942Z,99862.70
2017-07-26T13:34:22.509Z,99870.61
2017-07-26T13:36:49.963Z,99865.61
2017-07-26T13:39:17.462Z,99866.78
2017-07-26T13:41:45.032Z,99861.91
2017-07-26T13:44:12.471Z,99862.73
2017-07-26T13:46:39.954Z,99865.03
2017-07-26T13:49:07.485Z,99867.80
2017-07-26T13:51:35.056Z,99867.60
2017-07-26T13:54:02.497Z,99862.05
2017-07-26T13:56:29.950Z,99869.68
2017-07-26T13:58:57.383Z,99860.40
2017-07-26T14:01:24.939Z,99860.08
2017-07-26T14:03:52.388Z,99858.89
2017-07-26T14:06:19.872Z,99847.30
2017-07-26T14:08:47.320Z,99842.04
2017-07-26T14:11:14.754Z,99840.80
2017-07-26T14:13:42.226Z,99841.33
2017-07-26T14:16:09.683Z,99838.27
2017-07-26T14:18:37.174Z,99836.93
2017-07-26T14:21:04.640Z,99829.29
2017-07-26T14:23:32.181Z,99825.44
2017-07-26T14:25:59.635Z,99830.64
2017-07-26T14:28:27.217Z,99825.58
2017-07-26T14:30:54.781Z,99832.30
2017-07-26T14:33:22.331Z,99836.35
2017-07-26T14:35:49.768Z,99837.01
2017-07-26T14:38:17.225Z,99835.98
2017-07-26T14:40:44.685Z,99833.22
2017-07-26T14:43:12.147Z,99835.22
2017-07-26T14:45:39.586Z,99828.42
2017-07-26T14:48:07.042Z,99828.11
2017-07-26T14:50:34.519Z,99824.97
2017-07-26T14:53:02.076Z,99833.17
2017-07-26T14:55:29.535Z,99838.01
2017-07-26T14:57:56.975Z,99835.69
2017-07-26T15:00:24.453Z,99836.89
2017-07-26T15:02:51.891Z,99829.25
2017-07-26T15:05:19.351Z,99821.36
2017-07-26T15:07:46.826Z,99822.31
2017-07-26T15:10:14.283Z,99816.69
2017-07-26T15:12:41.791Z,99815.31
2017-07-26T15:15:09.266Z,99809.92
2017-07-26T15:17:36.701Z,99807.98
2017-07-26T15:20:04.193Z,99806.91
2017-07-26T15:22:31.900Z,99814.62
2017-07-26T15:24:59.349Z,99809.94
2017-07-26T15:27:26.806Z,99811.33
2017-07-26T15:29:54.291Z,99821.04
2017-07-26T15:32:21.781Z,99822.83
2017-07-26T15:34:49.580Z,99813.17
2017-07-26T15:37:17.043Z,99814.70
2017-07-26T15:39:44.498Z,99814.55
2017-07-26T15:42:11.963Z,99814.63
2017-07-26T15:44:39.473Z,99818.12
2017-07-26T15:47:07.396Z,99810.69
2017-07-26T15:49:34.843Z,99812.00
2017-07-26T15:52:02.306Z,99805.69
2017-07-26T15:54:29.751Z,99813.83
2017-07-26T15:56:57.270Z,99806.76
2017-07-26T15:59:24.734Z,99811.51
2017-07-26T16:01:52.196Z,99801.86
2017-07-26T16:04:19.738Z,99809.17
2017-07-26T16:06:47.195Z,99805.69
2017-07-26T16:09:14.637Z,99800.34
2017-07-26T16:11:42.121Z,99802.76
2017-07-26T16:14:09.549Z,99798.72
2017-07-26T16:16:37.022Z,99799.62
2017-07-26T16:19:04.477Z,99803.55
2017-07-26T16:21:31.919Z,99798.01
2017-07-26T16:23:59.584Z,99797.33
2017-07-26T16:26:27.017Z,99795.83
2017-07-26T16:28:54.527Z,99797.75
2017-07-26T16:31:21.958Z,99800.28
2017-07-26T16:33:49.517Z,99795.67
2017-07-26T16:36:16.953Z,99800.35
2017-07-26T16:38:44.415Z,99800.15
2017-07-26T16:41:11.855Z,99796.44
2017-07-26T16:43:39.349Z,99790.41
2017-07-26T16:46:06.805Z,99795.80
2017-07-26T16:48:34.376Z,99791.48
2017-07-26T16:51:01.806Z,99791.98
2017-07-26T16:53:29.267Z,99789.63
2017-07-26T16:55:56.735Z,99790.30
2017-07-26T16:58:24.295Z,99792.52
2017-07-26T17:00:52.343Z,99788.95
2017-07-26T17:03:19.827Z,99783.25
2017-07-26T17:05:47.262Z,99787.84
2017-07-26T17:08:14.707Z,99795.07
2017-07-26T17:10:42.182Z,99785.03
2017-07-26T17:13:09.857Z,99785.90
2017-07-26T17:15:37.441Z,99788.39
2017-07-26T17:18:05.289Z,99796.40
2017-07-26T17:20:32.776Z,99796.51
2017-07-26T17:23:00.228Z,99794.21
2017-07-26T17:25:28.103Z,99794.13
2017-07-26T17:27:55.676Z,99800.48
2017-07-26T17:30:23.184Z,99796.69
2017-07-26T17:32:50.640Z,99805.03
2017-07-26T17:35:18.122Z,99801.00
2017-07-26T17:37:45.657Z,99805.41
2017-07-26T17:40:13.129Z,99807.91
2017-07-26T17:42:40.599Z,99806.65
2017-07-26T17:45:08.070Z,99808.00
2017-07-26T17:47:35.512Z,99805.57
2017-07-26T17:50:03.092Z,99811.09
2017-07-26T17:52:30.560Z,99811.95
2017-07-26T17:54:58.156Z,99815.45
2017-07-26T17:57:25.603Z,99814.16
2017-07-26T17:59:53.157Z,99817.82
2017-07-26T18:02:20.660Z,99818.59
2017-07-26T18:04:48.089Z,99818.33
2017-07-26T18:07:16.514Z,99825.39
2017-07-26T18:09:43.971Z,99826.32
2017-07-26T18:12:11.429Z,99833.72
2017-07-26T18:14:38.921Z,99838.90
2017-07-26T18:17:06.378Z,99842.16
2017-07-26T18:19:33.865Z,99845.92
2017-07-26T18:22:01.325Z,99840.61
2017-07-26T18:24:28.762Z,99843.28
2017-07-26T18:26:56.214Z,99837.33
2017-07-26T18:29:23.651Z,99841.98
2017-07-26T18:31:51.117Z,99840.63
2017-07-26T18:34:18.584Z,99849.11
2017-07-26T18:36:46.029Z,99845.88
2017-07-26T18:39:13.493Z,99844.39
2017-07-26T18:41:40.940Z,99842.67
2017-07-26T18:44:08.409Z,99840.98
2017-07-26T18:46:35.857Z,99845.19
2017-07-26T18:49:03.309Z,99838.22
2017-07-26T18:51:30.832Z,99838.78
2017-07-26T18:53:58.325Z,99850.54
2017-07-26T18:56:25.768Z,99845.18
2017-07-26T18:58:53.231Z,99848.12
2017-07-26T19:01:20.667Z,99847.92
2017-07-26T19:03:48.159Z,99846.59
2017-07-26T19:06:15.656Z,99847.53
2017-07-26T19:08:43.147Z,99845.42
2017-07-26T19:11:10.635Z,99852.52
2017-07-26T19:13:38.102Z,99848.67
2017-07-26T19:16:05.633Z,99845.84
2017-07-26T19:18:33.080Z,99849.66
2017-07-26T19:21:00.526Z,99854.05
2017-07-26T19:23:27.979Z,99846.66
2017-07-26T19:25:55.565Z,99850.73
2017-07-26T19:28:23.800Z,99855.34
2017-07-26T19:30:51.319Z,99852.74
2017-07-26T19:33:18.773Z,99852.99
2017-07-26T19:35:46.265Z,99852.76
2017-07-26T19:38:16.528Z,99853.02
2017-07-26T19:40:43.998Z,99856.83
2017-07-26T19:43:11.467Z,99855.38
2017-07-26T19:45:38.930Z,99856.70
2017-07-26T19:48:06.392Z,99854.42
2017-07-26T19:50:33.948Z,99854.39
2017-07-26T19:53:01.406Z,99857.14
2017-07-26T19:55:28.887Z,99862.44
2017-07-26T19:57:56.355Z,99861.84
2017-07-26T20:00:23.874Z,99864.19
2017-07-26T20:02:51.318Z,99861.47
2017-07-26T20:05:18.806Z,99859.21
2017-07-26T20:07:46.334Z,99864.28
2017-07-26T20:10:13.927Z,99862.77
2017-07-26T20:12:41.392Z,99868.17
2017-07-26T20:15:08.842Z,99868.53
2017-07-26T20:17:36.325Z,99865.47
2017-07-26T20:20:03.770Z,99867.83
2017-07-26T20:22:31.335Z,99866.39
2017-07-26T20:24:58.780Z,99859.81
2017-07-26T20:27:27.166Z,99869.92
2017-07-26T20:29:54.611Z,99867.55
2017-07-26T20:32:22.083Z,99875.39
2017-07-26T20:34:49.529Z,99868.22
2017-07-26T20:37:17.000Z,99863.68
2017-07-26T20:39:44.568Z,99867.73
2017-07-26T20:42:12.243Z,99866.49
2017-07-26T20:44:39.723Z,99869.55
2017-07-26T20:47:07.189Z,99867.47
2017-07-26T20:49:34.779Z,99871.43
2017-07-26T20:52:02.281Z,99863.03
2017-07-26T20:54:29.702Z,99871.31
2017-07-26T20:56:57.183Z,99861.04
2017-07-26T20:59:24.646Z,99863.82
2017-07-26T21:01:52.127Z,99862.65
2017-07-26T21:04:20.679Z,99862.53
2017-07-26T21:06:48.151Z,99861.27
2017-07-26T21:09:15.606Z,99864.37
2017-07-26T21:11:43.048Z,99867.77
2017-07-26T21:14:10.527Z,99864.36
2017-07-26T21:16:38.071Z,99864.23
2017-07-26T21:19:05.545Z,99866.44
2017-07-26T21:21:33.045Z,99868.08
2017-07-26T21:24:00.499Z,99863.92
2017-07-26T21:26:27.940Z,99868.18
2017-07-26T21:28:55.463Z,99867.70
2017-07-26T21:31:22.906Z,99864.53
2017-07-26T21:33:50.461Z,99870.28
2017-07-26T21:36:17.923Z,99871.33
2017-07-26T21:38:45.394Z,99869.18
2017-07-26T21:41:12.832Z,99862.13
2017-07-26T21:43:40.399Z,99858.03
2017-07-26T21:46:07.849Z,99862.50
2017-07-26T21:48:35.422Z,99857.61
2017-07-26T21:51:02.854Z,99857.86
2017-07-26T21:53:30.337Z,99859.13
2017-07-26T21:55:57.791Z,99852.62
2017-07-26T21:58:25.235Z,99852.13
2017-07-26T22:00:52.690Z,99848.24
2017-07-26T22:03:20.134Z,99856.34
2017-07-26T22:05:47.611Z,99852.53
2017-07-26T22:08:15.042Z,99854.95
2017-07-26T22:10:42.507Z,99850.89
2017-07-26T22:13:09.959Z,99848.91
2017-07-26T22:15:37.410Z,99844.66
2017-07-26T22:18:04.899Z,99846.70
2017-07-26T22:20:32.438Z,99846.12
2017-07-26T22:22:59.877Z,99844.50
2017-07-26T22:25:27.360Z,99844.60
2017-07-26T22:27:54.797Z,99845.12
2017-07-26T22:30:22.263Z,99846.24
2017-07-26T22:32:49.714Z,99841.31
2017-07-26T22:35:17.174Z,99841.47
2017-07-26T22:37:44.651Z,99844.55
2017-07-26T22:40:12.171Z,99837.48
2017-07-26T22:42:39.653Z,99837.34
2017-07-26T22:45:07.110Z,99834.45
2017-07-26T22:47:34.556Z,99832.27
2017-07-26T22:50:02.090Z,99823.61
2017-07-26T22:52:29.586Z,99834.04
2017-07-26T22:54:57.048Z,99828.13
2017-07-26T22:57:24.507Z,99821.98
2017-07-26T22:59:51.943Z,99828.67
2017-07-26T23:02:19.411Z,99830.72
2017-07-26T23:07:39.795Z,99834.46
2017-07-26T23:10:07.246Z,99844.15
2017-07-26T23:12:34.732Z,99837.07
2017-07-26T23:15:02.158Z,99839.86
2017-07-26T23:17:29.658Z,99829.89
2017-07-26T23:19:58.534Z,99829.03
2017-07-26T23:22:26.105Z,99824.99
2017-07-26T23:24:53.570Z,99829.78
2017-07-26T23:27:21.025Z,99825.48
2017-07-26T23:29:48.751Z,99825.31
2017-07-26T23:32:16.291Z,99827.70
2017-07-26T23:34:43.732Z,99825.11
2017-07-26T23:37:11.186Z,99831.20
2017-07-26T23:39:38.631Z,99833.66
2017-07-26T23:42:06.418Z,99827.73
2017-07-26T23:44:33.940Z,99828.66
2017-07-26T23:47:01.500Z,99824.78
2017-07-26T23:49:28.945Z,99825.54
2017-07-26T23:51:56.493Z,99825.75
2017-07-26T23:54:23.959Z,99828.50
2017-07-26T23:56:51.427Z,99832.30
2017-07-26T23:59:18.986Z,99825.34
